Time;durP1;ratioP1;P1;durP2;ratioP2;P2;SDS_P1;SDS_P2;PMS_P1;PMS_P2;Temp;Humidity;BMP_temperature;BMP_pressure;BME280_temperature;BME280_humidity;BME280_pressure;Samples;Min_cycle;Max_cycle;Signal;HPM_P1;HPM_P2
2023/05/24 00:00:20;;;;;;;18.23;6.78;;;;;;;6.31;100.00;162216.50;5069187;28;20419;-65
2023/05/24 00:02:46;;;;;;;13.85;5.78;;;;;;;6.27;100.00;162205.75;5070489;28;20029;-65
2023/05/24 00:05:13;;;;;;;27.40;7.80;;;;;;;6.20;100.00;162186.91;5068964;28;20068;-64
2023/05/24 00:07:39;;;;;;;13.27;5.50;;;;;;;6.22;100.00;162190.94;5070498;28;20159;-65
2023/05/24 00:10:05;;;;;;;24.38;5.90;;;;;;;6.18;100.00;162181.50;5043814;28;20525;-66
2023/05/24 00:12:31;;;;;;;26.70;7.45;;;;;;;6.11;100.00;162164.00;5050159;28;20052;-66
2023/05/24 00:14:56;;;;;;;14.75;7.32;;;;;;;6.02;100.00;162141.13;5049228;28;20037;-64
2023/05/24 00:17:22;;;;;;;20.60;6.57;;;;;;;5.93;100.00;162115.53;5050672;28;20472;-65
2023/05/24 00:19:47;;;;;;;19.65;6.53;;;;;;;5.84;100.00;162092.66;5048470;28;20098;-63
2023/05/24 00:22:12;;;;;;;24.45;8.88;;;;;;;5.75;100.00;162069.75;5061387;28;20032;-63
2023/05/24 00:24:38;;;;;;;14.63;5.68;;;;;;;5.69;100.00;162055.00;5068897;28;20044;-64
2023/05/24 00:27:04;;;;;;;17.88;8.50;;;;;;;5.63;100.00;162037.47;5070213;28;20035;-64
2023/05/24 00:29:29;;;;;;;18.83;7.32;;;;;;;5.45;100.00;161990.41;5068801;28;20063;-64
2023/05/24 00:31:55;;;;;;;13.70;4.82;;;;;;;5.52;100.00;162009.22;5070613;28;20024;-64
2023/05/24 00:34:20;;;;;;;12.85;6.85;;;;;;;5.45;100.00;161990.41;5068834;28;20040;-66
2023/05/24 00:36:45;;;;;;;13.35;5.72;;;;;;;5.35;100.00;161966.16;5070238;28;20525;-66
2023/05/24 00:39:11;;;;;;;48.30;7.57;;;;;;;5.23;100.00;161935.22;5068739;28;20041;-66
2023/05/24 00:41:36;;;;;;;14.65;4.10;;;;;;;5.12;100.00;161904.28;5069793;28;20032;-65
2023/05/24 00:44:01;;;;;;;12.40;6.18;;;;;;;4.99;100.00;161870.69;5069042;28;20520;-65
2023/05/24 00:46:30;;;;;;;12.07;5.57;;;;;;;4.85;100.00;161834.38;5070608;28;20021;-65
2023/05/24 00:48:56;;;;;;;10.65;4.80;;;;;;;4.82;100.00;161827.66;5068593;28;20055;-65
2023/05/24 00:51:22;;;;;;;8.70;5.07;;;;;;;4.77;100.00;161814.19;5070145;28;20016;-64
2023/05/24 00:53:48;;;;;;;11.40;5.45;;;;;;;4.73;100.00;161804.75;5068797;28;20407;-64
2023/05/24 00:56:14;;;;;;;21.58;5.80;;;;;;;4.70;100.00;161796.72;5069901;28;20486;-64
2023/05/24 00:58:40;;;;;;;25.63;8.05;;;;;;;4.69;100.00;161794.03;5071183;28;20021;-65
2023/05/24 01:01:05;;;;;;;32.03;6.60;;;;;;;4.66;100.00;161785.94;5073528;28;20507;-64
2023/05/24 01:03:32;;;;;;;12.77;5.55;;;;;;;4.64;100.00;161780.59;5071607;28;20033;-64
2023/05/24 01:06:00;;;;;;;20.55;6.82;;;;;;;4.62;100.00;161775.22;5074059;28;20036;-64
2023/05/24 01:08:44;;;;;;;13.63;6.20;;;;;;;4.61;100.00;161772.50;5072696;28;20024;-64
2023/05/24 01:11:38;;;;;;;12.23;5.32;;;;;;;4.54;100.00;161755.00;5073615;28;20029;-64
2023/05/24 01:14:22;;;;;;;17.35;7.60;;;;;;;4.56;100.00;161759.09;5072384;28;20513;-65
2023/05/24 01:17:13;;;;;;;19.70;5.60;;;;;;;4.52;100.00;161748.31;5073725;28;20445;-65
2023/05/24 01:20:12;;;;;;;6.50;4.28;;;;;;;4.47;100.00;161734.88;5056838;28;20538;-65
2023/05/24 01:23:13;;;;;;;12.85;5.45;;;;;;;4.42;100.00;161724.13;5060946;28;20067;-65
2023/05/24 01:25:56;;;;;;;14.68;8.15;;;;;;;4.39;100.00;161716.06;5071567;28;20036;-65
2023/05/24 01:28:23;;;;;;;10.68;5.65;;;;;;;4.32;100.00;161697.22;5071978;28;20029;-64
2023/05/24 01:30:48;;;;;;;19.50;8.48;;;;;;;4.33;100.00;161699.94;5073066;28;20028;-65
2023/05/24 01:33:14;;;;;;;15.15;6.55;;;;;;;4.32;100.00;161697.22;5073326;28;20047;-66
2023/05/24 01:35:41;;;;;;;13.18;6.35;;;;;;;4.34;100.00;161701.25;5071455;28;20036;-65
2023/05/24 01:38:06;;;;;;;15.45;6.75;;;;;;;4.33;100.00;161699.94;5073282;28;20545;-66
2023/05/24 01:40:32;;;;;;;14.05;6.25;;;;;;;4.35;100.00;161703.94;5071286;28;20040;-66
2023/05/24 01:43:12;;;;;;;24.30;6.38;;;;;;;4.33;100.00;161699.94;5072706;28;20074;-66
2023/05/24 01:46:12;;;;;;;19.35;6.90;;;;;;;4.32;100.00;161697.22;5071623;28;20132;-67
2023/05/24 01:49:19;;;;;;;26.23;7.88;;;;;;;4.32;100.00;161697.22;5071197;28;20107;-66
2023/05/24 01:52:00;;;;;;;13.80;6.63;;;;;;;4.33;100.00;161699.94;5071361;28;20029;-66
2023/05/24 01:54:30;;;;;;;27.05;9.13;;;;;;;4.37;100.00;161710.66;5071338;28;20040;-66
2023/05/24 01:56:57;;;;;;;30.45;6.65;;;;;;;4.26;100.00;161681.13;5072487;28;20037;-66
2023/05/24 01:59:27;;;;;;;11.27;5.88;;;;;;;4.27;100.00;161683.81;5071422;28;20563;-66
2023/05/24 02:01:52;;;;;;;16.30;5.80;;;;;;;4.22;100.00;161670.34;5072316;28;20084;-66
2023/05/24 02:04:18;;;;;;;8.20;5.05;;;;;;;4.16;100.00;161655.59;5071030;28;20060;-66
2023/05/24 02:06:43;;;;;;;25.13;6.45;;;;;;;4.09;100.00;161636.78;5072530;28;20017;-66
2023/05/24 02:09:08;;;;;;;14.70;6.45;;;;;;;4.02;100.00;161619.28;5070700;28;20036;-66
2023/05/24 02:11:34;;;;;;;11.90;5.25;;;;;;;3.98;100.00;161608.53;5072046;28;20043;-66
2023/05/24 02:13:59;;;;;;;22.67;7.50;;;;;;;3.93;100.00;161595.06;5070826;28;20045;-69
2023/05/24 02:16:27;;;;;;;13.55;6.47;;;;;;;3.91;100.00;161589.75;5072635;28;20035;-69
2023/05/24 02:18:53;;;;;;;12.85;7.47;;;;;;;3.87;100.00;161578.97;5070681;28;20045;-69
2023/05/24 02:21:18;;;;;;;29.45;7.85;;;;;;;3.85;100.00;161573.56;5072190;28;20043;-67
2023/05/24 02:23:43;;;;;;;24.30;5.43;;;;;;;3.84;100.00;161570.88;5070930;28;20032;-68
2023/05/24 02:26:12;;;;;;;15.43;7.47;;;;;;;3.78;100.00;161557.44;5072048;28;20017;-67
2023/05/24 02:28:37;;;;;;;;;;;;;;;3.78;100.00;161557.44;5071033;28;20028;-68
2023/05/24 02:31:03;;;;;;;21.75;7.35;;;;;;;3.77;100.00;161554.75;5072371;28;20351;-67
2023/05/24 02:33:32;;;;;;;19.45;7.47;;;;;;;3.76;100.00;161552.06;5070378;28;20090;-67
2023/05/24 02:35:57;;;;;;;15.35;7.53;;;;;;;3.69;100.00;161531.94;5072156;28;20012;-67
2023/05/24 02:38:23;;;;;;;15.32;5.43;;;;;;;3.75;100.00;161548.03;5070543;28;20025;-67
2023/05/24 02:40:48;;;;;;;12.68;6.28;;;;;;;3.74;100.00;161546.72;5071349;28;20425;-68
2023/05/24 02:43:13;;;;;;;11.30;4.78;;;;;;;3.70;100.00;161535.94;5072043;28;20021;-67
2023/05/24 02:45:39;;;;;;;37.75;7.72;;;;;;;3.65;100.00;161522.53;5070311;28;20040;-67
2023/05/24 02:48:04;;;;;;;24.45;7.00;;;;;;;3.62;100.00;161514.44;5071643;28;20021;-67
2023/05/24 02:50:30;;;;;;;20.00;8.73;;;;;;;3.58;100.00;161503.72;5069993;28;20437;-67
2023/05/24 02:52:55;;;;;;;28.73;7.95;;;;;;;3.55;100.00;161495.63;5070362;28;20040;-68
2023/05/24 02:55:21;;;;;;;15.93;7.13;;;;;;;3.54;100.00;161493.00;5070002;28;20036;-68
2023/05/24 02:57:46;;;;;;;16.70;7.63;;;;;;;3.53;100.00;161490.31;5071988;28;20483;-68
2023/05/24 03:00:13;;;;;;;13.35;7.43;;;;;;;3.53;100.00;161490.31;5070196;28;20118;-68
2023/05/24 03:02:39;;;;;;;24.35;9.60;;;;;;;3.56;100.00;161498.34;5070816;28;20538;-68
2023/05/24 03:05:07;;;;;;;18.70;8.45;;;;;;;3.49;100.00;161482.22;5070100;28;20036;-67
2023/05/24 03:07:33;;;;;;;15.32;9.02;;;;;;;3.57;100.00;161502.41;5071594;28;20035;-66
2023/05/24 03:09:58;;;;;;;18.52;8.70;;;;;;;3.63;100.00;161517.13;5069649;28;20434;-67
2023/05/24 03:12:23;;;;;;;14.70;6.80;;;;;;;3.65;100.00;161523.84;5071460;28;20077;-66
2023/05/24 03:14:49;;;;;;;13.02;7.82;;;;;;;3.66;100.00;161525.22;5069985;28;20040;-66
2023/05/24 03:17:14;;;;;;;26.70;7.70;;;;;;;3.65;100.00;161522.53;5071274;28;20020;-66
2023/05/24 03:19:40;;;;;;;19.15;7.90;;;;;;;3.68;100.00;161529.25;5069246;28;20388;-68
2023/05/24 03:22:06;;;;;;;24.92;8.05;;;;;;;3.63;100.00;161517.13;5070919;28;20032;-67
2023/05/24 03:24:32;;;;;;;16.48;7.55;;;;;;;3.67;100.00;161527.91;5069063;28;20047;-68
2023/05/24 03:26:57;;;;;;;17.30;6.80;;;;;;;3.70;100.00;161535.94;5071541;28;20107;-67
2023/05/24 03:29:23;;;;;;;26.65;7.80;;;;;;;3.75;100.00;161549.41;5069961;28;20487;-68
2023/05/24 03:31:48;;;;;;;19.35;7.63;;;;;;;3.76;100.00;161550.75;5070173;28;20058;-67
2023/05/24 03:34:14;;;;;;;16.52;7.00;;;;;;;3.75;100.00;161549.41;5069914;28;20036;-68
2023/05/24 03:36:39;;;;;;;17.88;8.13;;;;;;;3.76;100.00;161550.75;5070761;28;20490;-65
2023/05/24 03:39:05;;;;;;;14.50;6.60;;;;;;;3.74;100.00;161546.72;5069219;28;20044;-66
2023/05/24 03:41:30;;;;;;;26.55;9.30;;;;;;;3.67;100.00;161527.91;5070510;28;20024;-65
2023/05/24 03:43:55;;;;;;;15.38;6.95;;;;;;;3.74;100.00;161546.72;5069781;28;20041;-65
2023/05/24 03:46:21;;;;;;;14.52;8.55;;;;;;;3.70;100.00;161535.94;5070612;28;20021;-65
2023/05/24 03:48:47;;;;;;;18.92;8.60;;;;;;;3.77;100.00;161553.44;5069516;28;20052;-65
2023/05/24 03:51:12;;;;;;;14.32;7.95;;;;;;;3.77;100.00;161554.75;5070739;28;20021;-66
2023/05/24 03:53:38;;;;;;;18.67;8.90;;;;;;;3.78;100.00;161557.44;5068840;28;20025;-67
2023/05/24 03:56:03;;;;;;;17.70;7.03;;;;;;;3.75;100.00;161549.41;5070775;28;20089;-67
2023/05/24 03:58:28;;;;;;;17.77;9.38;;;;;;;3.78;100.00;161557.44;5069241;28;20024;-65
2023/05/24 04:00:54;;;;;;;18.73;7.20;;;;;;;3.72;100.00;161541.34;5070141;28;20052;-72
2023/05/24 04:03:20;;;;;;;18.52;6.80;;;;;;;3.80;100.00;161562.84;5063246;28;20503;-65
2023/05/24 04:05:45;;;;;;;15.48;6.75;;;;;;;3.81;100.00;161565.53;5050253;28;20048;-64
2023/05/24 04:08:11;;;;;;;12.32;7.72;;;;;;;3.83;100.00;161569.56;5050784;28;20021;-64
2023/05/24 04:10:37;;;;;;;16.45;7.88;;;;;;;3.83;100.00;161569.56;5067290;28;20507;-64
2023/05/24 04:13:02;;;;;;;15.40;8.68;;;;;;;3.86;100.00;161576.25;5070771;28;20380;-64
2023/05/24 04:15:28;;;;;;;18.00;6.47;;;;;;;3.92;100.00;161592.38;5069221;28;20499;-67
2023/05/24 04:17:54;;;;;;;21.45;8.43;;;;;;;4.03;100.00;161621.97;5069411;28;20043;-66
2023/05/24 04:20:24;;;;;;;16.27;9.18;;;;;;;4.13;100.00;161648.81;5068677;28;20446;-66
2023/05/24 04:22:50;;;;;;;23.88;8.98;;;;;;;4.23;100.00;161673.03;5070141;28;20022;-66
2023/05/24 04:25:15;;;;;;;12.75;7.63;;;;;;;4.35;100.00;161705.31;5046030;28;20049;-66
2023/05/24 04:27:41;;;;;;;20.83;9.00;;;;;;;4.48;100.00;161737.56;5030635;28;20075;-66
2023/05/24 04:30:08;;;;;;;15.90;7.63;;;;;;;4.60;100.00;161769.81;5043575;28;20048;-66
2023/05/24 04:32:33;;;;;;;16.88;8.88;;;;;;;4.72;100.00;161802.13;5052564;28;20017;-67
2023/05/24 04:35:01;;;;;;;17.55;8.40;;;;;;;4.82;100.00;161827.66;5040166;28;20045;-66
2023/05/24 04:37:28;;;;;;;25.27;8.82;;;;;;;5.01;100.00;161877.41;5054241;28;20074;-67
2023/05/24 04:39:53;;;;;;;18.80;7.68;;;;;;;5.17;100.00;161917.78;5052416;28;20045;-66
2023/05/24 04:42:19;;;;;;;21.42;9.23;;;;;;;5.34;100.00;161963.47;5053492;28;20025;-66
2023/05/24 04:44:44;;;;;;;20.50;10.55;;;;;;;5.52;100.00;162010.56;5052560;28;20052;-66
2023/05/24 04:47:11;;;;;;;47.53;12.85;;;;;;;5.68;100.00;162052.28;5054004;28;20033;-66
2023/05/24 04:49:37;;;;;;;27.95;13.57;;;;;;;5.86;100.00;162098.00;5051993;28;20033;-66
2023/05/24 04:52:03;;;;;;;21.92;10.52;;;;;;;6.05;100.00;162146.53;5054528;28;20024;-66
2023/05/24 04:54:28;;;;;;;33.28;12.07;;;;;;;6.20;100.00;162186.91;5052456;28;20044;-66
2023/05/24 04:56:53;;;;;;;26.23;11.63;;;;;;;6.38;100.00;162232.63;5054123;28;20029;-67
2023/05/24 04:59:19;;;;;;;40.80;13.25;;;;;;;6.51;100.00;162269.00;5052772;28;20491;-68
2023/05/24 05:01:44;;;;;;;27.27;11.18;;;;;;;6.62;100.00;162297.28;5053098;28;20048;-67
2023/05/24 05:04:09;;;;;;;24.83;12.10;;;;;;;6.77;100.00;162336.34;5052611;28;20037;-67
2023/05/24 05:06:37;;;;;;;37.92;10.88;;;;;;;6.87;100.00;162361.91;5053788;28;20043;-65
2023/05/24 05:09:11;;;;;;;24.77;10.98;;;;;;;6.93;100.00;162378.06;5052191;28;20039;-68
2023/05/24 05:11:37;;;;;;;23.98;12.50;;;;;;;6.98;100.00;162391.53;5053568;28;20100;-67
2023/05/24 05:14:03;;;;;;;41.80;11.13;;;;;;;7.05;100.00;162407.66;5052449;28;20098;-67
2023/05/24 05:16:29;;;;;;;43.08;13.23;;;;;;;7.05;100.00;162407.66;5053115;28;20029;-63
2023/05/24 05:18:54;;;;;;;39.95;11.82;;;;;;;7.15;100.00;162434.63;5052302;28;20041;-64
2023/05/24 05:21:20;;;;;;;33.80;9.75;;;;;;;7.20;100.00;162448.06;5053299;28;20029;-63
2023/05/24 05:23:45;;;;;;;30.38;10.80;;;;;;;7.27;100.00;162465.63;5051870;28;20046;-63
2023/05/24 05:26:11;;;;;;;34.55;12.80;;;;;;;7.34;100.00;162483.09;5053834;28;20538;-63
2023/05/24 05:28:36;;;;;;;35.38;12.45;;;;;;;7.41;100.00;162502.00;5051875;28;20383;-63
2023/05/24 05:31:02;;;;;;;39.00;13.25;;;;;;;7.46;100.00;162515.44;5053094;28;20384;-63
2023/05/24 05:33:29;;;;;;;34.35;10.20;;;;;;;7.51;100.00;162528.91;5051849;28;20032;-63
2023/05/24 05:35:54;;;;;;;37.58;12.38;;;;;;;7.58;100.00;162547.75;5053717;28;20430;-63
2023/05/24 05:38:20;;;;;;;27.13;10.07;;;;;;;7.71;100.00;162580.09;5051646;28;20037;-63
2023/05/24 05:40:45;;;;;;;31.67;8.40;;;;;;;7.88;100.00;162625.91;5051660;28;20045;-63
2023/05/24 05:43:10;;;;;;;29.02;10.77;;;;;;;8.01;100.00;162658.22;5052298;28;20025;-63
2023/05/24 05:45:36;;;;;;;37.47;13.65;;;;;;;8.16;100.00;162698.66;5069645;28;20033;-63
2023/05/24 05:48:01;;;;;;;29.10;9.10;;;;;;;8.33;100.00;162741.81;5073025;28;20051;-63
2023/05/24 05:50:26;;;;;;;22.42;10.05;;;;;;;8.41;100.00;162764.69;5071869;28;20471;-63
2023/05/24 05:52:52;;;;;;;31.58;11.05;;;;;;;8.45;100.00;162774.13;5072498;28;20379;-63
2023/05/24 05:55:17;;;;;;;24.80;10.20;;;;;;;8.38;100.00;162756.66;5071486;28;20037;-63
2023/05/24 05:57:42;;;;;;;28.40;9.60;;;;;;;8.32;100.00;162739.09;5072788;28;20025;-63
2023/05/24 06:00:08;;;;;;;38.17;13.45;;;;;;;8.27;100.00;162726.97;5070995;28;20032;-63
2023/05/24 06:02:34;;;;;;;31.00;11.27;;;;;;;8.28;100.00;162728.34;5070626;28;20040;-63
2023/05/24 06:04:59;;;;;;;35.95;12.93;;;;;;;8.29;100.00;162732.38;5069499;28;20033;-63
2023/05/24 06:07:24;;;;;;;21.17;10.02;;;;;;;8.38;100.00;162755.25;5070500;28;20103;-63
2023/05/24 06:09:50;;;;;;;22.80;9.52;;;;;;;8.52;100.00;162791.72;5069463;28;20044;-63
2023/05/24 06:12:15;;;;;;;30.75;9.90;;;;;;;8.76;100.00;162855.09;5070968;28;20020;-63
2023/05/24 06:14:40;;;;;;;34.72;9.77;;;;;;;8.95;100.00;162904.97;5070011;28;20037;-63
2023/05/24 06:17:06;;;;;;;25.25;10.57;;;;;;;9.11;100.00;162946.81;5059851;28;20078;-64
2023/05/24 06:19:31;;;;;;;25.50;9.95;;;;;;;9.31;100.00;162998.03;5060201;28;20503;-63
2023/05/24 06:21:57;;;;;;;30.17;10.15;;;;;;;9.48;100.00;163043.91;5072151;28;20058;-63
2023/05/24 06:24:23;;;;;;;26.90;8.68;;;;;;;9.71;100.00;163103.25;5058376;28;20102;-63
2023/05/24 06:26:50;;;;;;;35.67;10.98;;;;;;;9.93;100.00;163161.25;5052471;28;20025;-64
2023/05/24 06:29:19;;;;;;;31.77;13.07;;;;;;;10.11;100.00;163208.47;5050477;28;20033;-64
2023/05/24 06:31:46;;;;;;;23.73;8.15;;;;;;;10.29;100.00;163254.38;5052047;28;20033;-64
2023/05/24 06:34:11;;;;;;;24.80;8.57;;;;;;;10.52;100.00;163313.81;5050809;28;20037;-63
2023/05/24 06:36:41;;;;;;;32.78;9.45;;;;;;;10.71;100.00;163365.09;5070603;28;20035;-64
2023/05/24 06:39:07;;;;;;;20.95;9.15;;;;;;;10.86;100.00;163404.25;5070724;28;20036;-64
2023/05/24 06:41:32;;;;;;;38.00;9.35;;;;;;;11.08;100.00;163462.28;5071699;28;20029;-64
2023/05/24 06:43:58;;;;;;;26.15;7.45;;;;;;;11.08;100.00;163462.28;5069934;28;20040;-63
2023/05/24 06:46:23;;;;;;;37.00;9.90;;;;;;;11.67;100.00;163614.91;5072178;28;20020;-64
2023/05/24 06:48:49;;;;;;;45.38;10.13;;;;;;;11.93;100.00;163683.81;5070355;28;20039;-64
2023/05/24 06:51:14;;;;;;;17.17;7.47;;;;;;;11.98;100.00;163697.34;5071530;28;20021;-64
2023/05/24 06:53:40;;;;;;;21.75;7.65;;;;;;;11.86;100.00;163664.91;5055060;28;20081;-63
2023/05/24 06:56:08;;;;;;;18.10;6.97;;;;;;;11.91;100.00;163679.72;5050816;28;20029;-63
2023/05/24 06:58:33;;;;;;;20.40;7.37;;;;;;;11.74;100.00;163635.16;5049743;28;20025;-63
2023/05/24 07:00:58;;;;;;;17.25;7.57;;;;;;;11.82;100.00;163654.06;5051698;28;21001;-63
2023/05/24 07:03:24;;;;;;;29.95;7.85;;;;;;;11.95;100.00;163689.16;5050120;28;20024;-64
2023/05/24 07:05:49;;;;;;;18.20;6.20;;;;;;;12.16;100.00;163743.31;5051388;28;20388;-63
2023/05/24 07:08:14;;;;;;;16.63;6.55;;;;;;;12.10;100.00;163727.09;5051686;28;20029;-63
2023/05/24 07:10:40;;;;;;;13.63;4.72;;;;;;;12.03;100.00;163710.84;5049846;28;20047;-63
2023/05/24 07:13:05;;;;;;;15.45;6.07;;;;;;;12.05;100.00;163714.94;5051607;28;20029;-63
2023/05/24 07:15:31;;;;;;;26.40;6.05;;;;;;;12.24;100.00;163764.91;5049412;28;20040;-63
2023/05/24 07:17:56;;;;;;;18.98;7.63;;;;;;;12.15;100.00;163740.59;5051638;28;20491;-63
2023/05/24 07:20:21;;;;;;;14.23;5.88;;;;;;;12.01;100.00;163705.47;5049956;28;20036;-63
2023/05/24 07:22:47;;;;;;;18.38;6.68;;;;;;;11.94;100.00;163686.50;5050673;28;20032;-63
2023/05/24 07:25:12;;;;;;;16.75;5.70;;;;;;;11.95;100.00;163689.16;5049730;28;20052;-63
2023/05/24 07:27:37;;;;;;;23.13;7.00;;;;;;;11.94;100.00;163685.13;5051144;28;20017;-63
2023/05/24 07:30:04;;;;;;;27.25;9.00;;;;;;;12.27;100.00;163773.00;5049571;28;20041;-64
2023/05/24 07:32:31;;;;;;;25.95;7.68;;;;;;;12.77;100.00;163902.75;5050954;28;20428;-63
2023/05/24 07:34:57;;;;;;;14.30;5.13;;;;;;;12.52;100.00;163839.22;5049925;28;20037;-63
2023/05/24 07:37:23;;;;;;;27.45;6.70;;;;;;;12.57;100.00;163851.38;5050689;28;20040;-64
2023/05/24 07:39:50;;;;;;;22.27;6.38;;;;;;;12.67;100.00;163878.44;5049478;28;20037;-64
2023/05/24 07:42:15;;;;;;;19.38;5.43;;;;;;;12.56;100.00;163848.66;5051110;28;20028;-64
2023/05/24 07:44:41;;;;;;;14.90;5.43;;;;;;;12.53;100.00;163840.59;5048717;28;20045;-64
2023/05/24 07:47:06;;;;;;;20.98;7.53;;;;;;;12.38;100.00;163802.75;5051263;28;20021;-64
2023/05/24 07:49:31;;;;;;;20.52;7.15;;;;;;;12.34;100.00;163791.91;5049406;28;20115;-64
2023/05/24 07:51:58;;;;;;;17.20;8.23;;;;;;;12.31;100.00;163783.84;5050723;28;20427;-64
2023/05/24 07:54:24;;;;;;;21.33;6.35;;;;;;;12.57;100.00;163851.38;5049438;28;20043;-63
2023/05/24 07:56:49;;;;;;;30.55;8.85;;;;;;;12.63;100.00;163867.59;5050641;28;20387;-64
2023/05/24 07:59:14;;;;;;;20.92;4.85;;;;;;;12.60;100.00;163858.13;5048911;28;20037;-63
2023/05/24 08:01:40;;;;;;;23.35;5.82;;;;;;;12.82;100.00;163916.28;5047865;28;20412;-64
2023/05/24 08:04:07;;;;;;;20.17;7.03;;;;;;;13.01;100.00;163967.63;5044555;28;20044;-64
2023/05/24 08:06:33;;;;;;;22.17;7.18;;;;;;;13.08;100.00;163983.81;5058926;28;20174;-64
2023/05/24 08:08:59;;;;;;;20.02;4.80;;;;;;;13.02;100.00;163969.00;5069320;28;20044;-64
2023/05/24 08:11:24;;;;;;;18.42;5.53;;;;;;;12.91;100.00;163940.63;5070934;28;20063;-64
2023/05/24 08:13:50;;;;;;;20.85;6.80;;;;;;;12.57;100.00;163851.38;5067012;28;20403;-64
2023/05/24 08:16:15;;;;;;;15.43;6.47;;;;;;;12.41;100.00;163808.13;5070604;28;20126;-63
2023/05/24 08:18:40;;;;;;;11.32;4.72;;;;;;;12.55;100.00;163845.97;5069182;28;20066;-64
2023/05/24 08:21:06;;;;;;;18.88;6.68;;;;;;;12.85;100.00;163924.34;5070395;28;20028;-64
2023/05/24 08:23:32;;;;;;;21.58;7.00;;;;;;;13.22;100.00;164021.69;5069006;28;20020;-63
2023/05/24 08:25:58;;;;;;;13.73;5.40;;;;;;;13.52;100.00;164098.81;5070690;28;20108;-63
2023/05/24 08:28:24;;;;;;;18.90;5.80;;;;;;;13.59;100.00;164119.09;5068944;28;20412;-62
2023/05/24 08:30:49;;;;;;;17.30;5.97;;;;;;;13.12;100.00;163994.66;5070400;28;20055;-63
2023/05/24 08:33:15;;;;;;;18.98;7.75;;;;;;;12.90;100.00;163937.91;5070558;28;20414;-63
2023/05/24 08:35:40;;;;;;;24.88;6.30;;;;;;;12.97;100.00;163956.81;5068502;28;20040;-63
2023/05/24 08:38:06;;;;;;;12.25;5.57;;;;;;;13.18;100.00;164010.88;5070412;28;20025;-63
2023/05/24 08:40:31;;;;;;;13.85;5.70;;;;;;;13.54;100.00;164105.56;5068739;28;20043;-63
2023/05/24 08:43:00;;;;;;;16.20;6.07;;;;;;;13.62;100.00;164127.22;5069892;28;20459;-63
2023/05/24 08:45:28;;;;;;;;;;;;;;;13.88;100.00;164194.84;5069410;28;20098;-64
2023/05/24 08:47:54;;;;;;;32.28;7.70;;;;;;;14.23;100.00;164286.81;5070423;28;19915;-63
2023/05/24 08:50:20;;;;;;;12.00;5.25;;;;;;;14.46;100.00;164346.34;5068557;28;20502;-64
2023/05/24 08:52:46;;;;;;;23.30;7.15;;;;;;;14.41;100.00;164332.78;5070072;28;20024;-64
2023/05/24 08:55:11;;;;;;;14.25;5.03;;;;;;;14.34;100.00;164313.84;5068983;28;20033;-64
2023/05/24 08:57:40;;;;;;;18.63;6.60;;;;;;;14.08;100.00;164247.56;5069693;28;20017;-64
2023/05/24 09:00:10;;;;;;;13.65;4.50;;;;;;;13.88;100.00;164194.84;5068561;28;20136;-64
2023/05/24 09:02:37;;;;;;;16.30;5.70;;;;;;;13.54;100.00;164105.56;5069903;28;20415;-64
2023/05/24 09:05:04;;;;;;;27.00;8.75;;;;;;;13.17;100.00;164009.56;5068492;28;20037;-63
2023/05/24 09:07:30;;;;;;;15.40;5.03;;;;;;;13.02;100.00;163969.00;5069990;28;20365;-64
2023/05/24 09:09:59;;;;;;;13.13;5.22;;;;;;;13.02;100.00;163970.31;5068904;28;20041;-63
2023/05/24 09:12:29;;;;;;;13.95;5.30;;;;;;;12.99;100.00;163962.19;5069706;28;20017;-64
2023/05/24 09:14:54;;;;;;;12.88;4.90;;;;;;;13.00;100.00;163964.91;5068659;28;20403;-64
2023/05/24 09:17:21;;;;;;;11.02;3.92;;;;;;;13.19;100.00;164013.59;5070191;28;20027;-64
2023/05/24 09:19:46;;;;;;;13.10;4.53;;;;;;;13.36;100.00;164056.88;5070599;28;20048;-64
2023/05/24 09:22:13;;;;;;;17.02;4.72;;;;;;;13.24;100.00;164027.09;5073434;28;20107;-63
2023/05/24 09:24:42;;;;;;;15.35;6.50;;;;;;;13.02;100.00;163970.31;5072142;28;20045;-64
2023/05/24 09:27:08;;;;;;;12.23;3.95;;;;;;;12.95;100.00;163951.41;5073399;28;20403;-64
2023/05/24 09:29:37;;;;;;;12.70;3.85;;;;;;;12.98;100.00;163958.16;5071867;28;20051;-63
2023/05/24 09:32:06;;;;;;;8.82;3.78;;;;;;;13.07;100.00;163981.16;5073538;28;20463;-63
2023/05/24 09:34:54;;;;;;;12.80;3.75;;;;;;;13.22;100.00;164021.69;5071538;28;20459;-64
2023/05/24 09:37:23;;;;;;;15.55;3.65;;;;;;;13.28;100.00;164037.94;5073452;28;20024;-64
2023/05/24 09:39:50;;;;;;;10.25;4.88;;;;;;;13.35;100.00;164054.16;5071880;28;20040;-64
2023/05/24 09:42:23;;;;;;;17.80;5.90;;;;;;;13.51;100.00;164097.50;5073105;28;20036;-64
2023/05/24 09:45:09;;;;;;;14.43;4.60;;;;;;;13.44;100.00;164078.56;5057829;28;20423;-63
2023/05/24 09:47:40;;;;;;;16.60;4.00;;;;;;;13.25;100.00;164029.81;5052828;28;20061;-64
2023/05/24 09:50:12;;;;;;;11.30;3.72;;;;;;;13.54;100.00;164105.56;5051435;28;20041;-64
2023/05/24 09:52:38;;;;;;;17.20;6.70;;;;;;;13.76;100.00;164163.75;5053044;28;20036;-64
2023/05/24 09:55:14;;;;;;;10.25;5.57;;;;;;;13.70;100.00;164146.16;5051547;28;20033;-64
2023/05/24 09:57:40;;;;;;;17.48;5.70;;;;;;;13.73;100.00;164154.28;5052488;28;20029;-63
2023/05/24 10:00:13;;;;;;;25.50;6.15;;;;;;;13.85;100.00;164186.72;5051497;28;20456;-64
2023/05/24 10:02:38;;;;;;;17.50;4.63;;;;;;;13.83;100.00;164181.31;5052855;28;20100;-64
2023/05/24 10:05:04;;;;;;;16.33;4.57;;;;;;;13.95;100.00;164213.78;5051100;28;20060;-64
2023/05/24 10:07:33;;;;;;;14.68;4.90;;;;;;;14.23;100.00;164286.81;5046804;28;20087;-64
2023/05/24 10:09:59;;;;;;;14.60;4.68;;;;;;;14.15;100.00;164265.19;5043681;28;20036;-64
2023/05/24 10:12:25;;;;;;;27.27;7.70;;;;;;;14.11;100.00;164254.38;5052725;28;20020;-64
2023/05/24 10:14:51;;;;;;;12.07;5.55;;;;;;;13.83;100.00;164181.31;5039173;28;20096;-64
2023/05/24 10:17:16;;;;;;;9.77;3.85;;;;;;;13.73;100.00;164154.28;5038262;28;20108;-64
2023/05/24 10:19:43;;;;;;;11.98;4.07;;;;;;;13.51;100.00;164096.13;5061584;28;20033;-64
2023/05/24 10:22:10;;;;;;;22.70;5.65;;;;;;;13.47;100.00;164086.66;5072055;28;20033;-64
2023/05/24 10:24:39;;;;;;;17.48;5.32;;;;;;;13.54;100.00;164105.56;5070841;28;20383;-64
2023/05/24 10:27:12;;;;;;;17.15;4.20;;;;;;;13.35;100.00;164054.16;5072351;28;20020;-64
2023/05/24 10:29:50;;;;;;;14.05;5.80;;;;;;;13.21;100.00;164017.63;5070566;28;20097;-64
2023/05/24 10:32:17;;;;;;;10.93;4.85;;;;;;;13.16;100.00;164005.47;5072472;28;20021;-64
2023/05/24 10:34:44;;;;;;;11.23;4.32;;;;;;;13.26;100.00;164032.53;5068060;28;20033;-64
2023/05/24 10:37:09;;;;;;;14.68;4.15;;;;;;;13.06;100.00;163978.47;5071832;28;20028;-64
2023/05/24 10:39:36;;;;;;;14.32;4.53;;;;;;;13.14;100.00;164001.41;5069461;28;20466;-64
2023/05/24 10:42:04;;;;;;;9.25;3.50;;;;;;;13.27;100.00;164035.22;5071135;28;20116;-64
2023/05/24 10:44:30;;;;;;;15.20;5.00;;;;;;;13.41;100.00;164070.44;5070364;28;20043;-63
2023/05/24 10:47:16;;;;;;;14.35;4.63;;;;;;;13.44;100.00;164078.56;5072272;28;20062;-64
2023/05/24 10:49:56;;;;;;;14.48;5.65;;;;;;;13.39;100.00;164065.00;5070044;28;20422;-64
2023/05/24 10:52:33;;;;;;;13.27;5.57;;;;;;;13.57;100.00;164113.72;5072176;28;20067;-64
2023/05/24 10:55:10;;;;;;;21.80;5.68;;;;;;;13.68;100.00;164142.09;5070582;28;20040;-64
2023/05/24 10:57:37;;;;;;;15.30;6.07;;;;;;;13.75;100.00;164159.66;5070852;28;20036;-64
2023/05/24 11:00:27;;;;;;;17.83;6.15;;;;;;;13.84;100.00;164184.00;5070211;28;20036;-64
2023/05/24 11:03:00;;;;;;;7.70;3.92;;;;;;;13.94;100.00;164211.09;5071177;28;20056;-64
2023/05/24 11:05:33;;;;;;;12.68;5.78;;;;;;;13.86;100.00;164189.44;5070070;28;20040;-64
2023/05/24 11:08:00;;;;;;;10.63;3.55;;;;;;;13.85;100.00;164186.72;5071585;28;20039;-64
2023/05/24 11:10:31;;;;;;;10.52;3.53;;;;;;;13.91;100.00;164201.63;5069736;28;20040;-64
2023/05/24 11:13:03;;;;;;;11.38;4.30;;;;;;;13.72;100.00;164151.56;5071737;28;20024;-64
2023/05/24 11:15:29;;;;;;;14.00;6.18;;;;;;;13.55;100.00;164106.97;5069607;28;20044;-64